Time;durP1;ratioP1;P1;durP2;ratioP2;P2;SDS_P1;SDS_P2;PMS_P1;PMS_P2;Temp;Humidity;BMP_temperature;BMP_pressure;BME280_temperature;BME280_humidity;BME280_pressure;Samples;Min_cycle;Max_cycle;Signal;HPM_P1;HPM_P2
2022/11/03 00:01:38;;;;;;;18.92;3.88;;;;;;;;;;4986034;28;20037;-71
2022/11/03 00:04:07;;;;;;;18.38;4.45;;;;;;;;;;4975091;28;20484;-73
2022/11/03 00:06:36;;;;;;;14.80;3.50;;;;;;;;;;4983068;28;20862;-72
2022/11/03 00:09:06;;;;;;;18.20;4.68;;;;;;;;;;5001586;28;20051;-71
2022/11/03 00:11:32;;;;;;;15.43;4.05;;;;;;;;;;4984524;28;20909;-69
2022/11/03 00:13:58;;;;;;;19.35;4.57;;;;;;;;;;4981850;28;20361;-72
2022/11/03 00:16:23;;;;;;;25.60;6.20;;;;;;;;;;4981273;28;20038;-72
2022/11/03 00:18:51;;;;;;;18.27;4.90;;;;;;;;;;4986913;28;20041;-72
2022/11/03 00:21:17;;;;;;;23.20;4.47;;;;;;;;;;4984580;28;20068;-71
2022/11/03 00:23:43;;;;;;;19.58;4.30;;;;;;;;;;4986253;28;20041;-71
2022/11/03 00:26:09;;;;;;;13.90;3.60;;;;;;;;;;4981749;28;20112;-71
2022/11/03 00:28:34;;;;;;;21.60;5.82;;;;;;;;;;4983568;28;20106;-72
2022/11/03 00:31:01;;;;;;;18.52;4.95;;;;;;;;;;4986344;28;20875;-70
2022/11/03 00:33:31;;;;;;;16.83;4.75;;;;;;;;;;4982664;28;20034;-70
2022/11/03 00:35:57;;;;;;;25.42;5.50;;;;;;;;;;4977093;28;20501;-70
2022/11/03 00:38:23;;;;;;;29.83;6.03;;;;;;;;;;4980787;28;20034;-71
2022/11/03 00:40:56;;;;;;;16.67;3.65;;;;;;;;;;4983324;28;20073;-71
2022/11/03 00:43:22;;;;;;;23.73;4.78;;;;;;;;;;4984088;28;20115;-71
2022/11/03 00:45:48;;;;;;;16.45;4.00;;;;;;;;;;4983175;28;20043;-71
2022/11/03 00:48:29;;;;;;;23.90;4.55;;;;;;;;;;4982052;28;20111;-71
2022/11/03 00:51:12;;;;;;;14.80;4.57;;;;;;;;;;4982819;28;20041;-70
2022/11/03 00:53:57;;;;;;;22.35;5.30;;;;;;;;;;4984157;28;20040;-72
2022/11/03 00:56:30;;;;;;;20.13;4.32;;;;;;;;;;4981667;28;20135;-70
2022/11/03 00:59:01;;;;;;;22.42;4.97;;;;;;;;;;4983237;28;20146;-73
2022/11/03 01:01:27;;;;;;;22.67;4.35;;;;;;;;;;4983916;28;20060;-72
2022/11/03 01:06:48;;;;;;;22.20;4.53;;;;;;;;;;4981800;28;20033;-71
2022/11/03 01:09:17;;;;;;;22.10;4.90;;;;;;;;;;4982606;28;20026;-68
2022/11/03 01:12:03;;;;;;;13.48;3.60;;;;;;;;;;4966092;28;20103;-68
2022/11/03 01:14:30;;;;;;;19.52;4.38;;;;;;;;;;4983554;28;20035;-69
2022/11/03 01:16:58;;;;;;;16.17;4.38;;;;;;;;;;4982943;28;21291;-68
2022/11/03 01:19:24;;;;;;;17.35;4.13;;;;;;;;;;4981449;28;20034;-67
2022/11/03 01:21:51;;;;;;;15.20;3.95;;;;;;;;;;4976020;28;20025;-69
2022/11/03 01:24:18;;;;;;;19.23;4.13;;;;;;;;;;4982386;28;20033;-68
2022/11/03 01:26:43;;;;;;;17.33;4.78;;;;;;;;;;4981835;28;20037;-69
2022/11/03 01:29:08;;;;;;;31.25;6.00;;;;;;;;;;4981026;28;20978;-67
2022/11/03 01:31:36;;;;;;;20.73;4.25;;;;;;;;;;4980804;28;20089;-69
2022/11/03 01:34:01;;;;;;;20.65;3.92;;;;;;;;;;4982100;28;20095;-68
2022/11/03 01:36:27;;;;;;;21.08;4.72;;;;;;;;;;4982393;28;22552;-68
2022/11/03 01:38:55;;;;;;;26.83;6.00;;;;;;;;;;4958333;28;20146;-68
2022/11/03 01:41:23;;;;;;;22.85;4.80;;;;;;;;;;4983692;28;20081;-71
2022/11/03 01:44:11;;;;;;;13.23;3.25;;;;;;;;;;4981722;28;22703;-72
2022/11/03 01:46:39;;;;;;;23.17;4.07;;;;;;;;;;4980178;28;20030;-70
2022/11/03 01:49:08;;;;;;;18.70;4.95;;;;;;;;;;4980582;28;20099;-69
2022/11/03 01:51:35;;;;;;;22.83;4.55;;;;;;;;;;4982622;28;20335;-70
2022/11/03 01:54:03;;;;;;;21.50;6.45;;;;;;;;;;4983765;28;20144;-69
2022/11/03 01:56:31;;;;;;;23.15;6.20;;;;;;;;;;4986185;28;20044;-71
2022/11/03 01:58:59;;;;;;;22.83;5.03;;;;;;;;;;4985217;28;20780;-69
2022/11/03 02:01:25;;;;;;;23.67;5.30;;;;;;;;;;4986090;28;20045;-71
2022/11/03 02:03:52;;;;;;;27.50;6.75;;;;;;;;;;5001333;28;20041;-71
2022/11/03 02:06:21;;;;;;;26.73;8.48;;;;;;;;;;4985722;28;20034;-71
2022/11/03 02:08:49;;;;;;;23.60;5.78;;;;;;;;;;4983581;28;20072;-70
2022/11/03 02:14:02;;;;;;;22.10;4.70;;;;;;;;;;4988498;28;20887;-70
2022/11/03 02:16:29;;;;;;;18.05;4.63;;;;;;;;;;4985910;28;20172;-72
2022/11/03 02:18:56;;;;;;;24.40;5.43;;;;;;;;;;4980781;28;20152;-71
2022/11/03 02:21:29;;;;;;;25.77;6.63;;;;;;;;;;4983856;28;20049;-70
2022/11/03 02:24:03;;;;;;;21.98;6.05;;;;;;;;;;5001210;28;20033;-70
2022/11/03 02:26:29;;;;;;;21.50;5.32;;;;;;;;;;4984407;28;20030;-71
2022/11/03 02:28:55;;;;;;;18.67;5.15;;;;;;;;;;4986314;28;20107;-70
2022/11/03 02:31:23;;;;;;;25.65;6.57;;;;;;;;;;4986767;28;20038;-70
2022/11/03 02:33:52;;;;;;;25.15;5.55;;;;;;;;;;4978858;28;20094;-69
2022/11/03 02:36:30;;;;;;;22.55;5.68;;;;;;;;;;4987251;28;21582;-70
2022/11/03 02:39:09;;;;;;;23.92;6.00;;;;;;;;;;4986199;28;20135;-70
2022/11/03 02:41:36;;;;;;;29.35;6.57;;;;;;;;;;4977288;28;20042;-70
2022/11/03 02:44:03;;;;;;;23.10;4.78;;;;;;;;;;4987999;28;20439;-70
2022/11/03 02:46:29;;;;;;;20.48;4.63;;;;;;;;;;4997324;28;20037;-70
2022/11/03 02:48:56;;;;;;;25.85;5.40;;;;;;;;;;4987569;28;20037;-69
2022/11/03 02:51:22;;;;;;;27.25;7.03;;;;;;;;;;4983158;28;20226;-72
2022/11/03 02:54:07;;;;;;;27.27;7.57;;;;;;;;;;4985087;28;20944;-71
2022/11/03 02:56:35;;;;;;;29.67;8.75;;;;;;;;;;4984624;28;20029;-69
2022/11/03 02:59:01;;;;;;;32.65;8.32;;;;;;;;;;4987091;28;20128;-70
2022/11/03 03:01:31;;;;;;;29.13;8.85;;;;;;;;;;4983665;28;21432;-71
2022/11/03 03:03:58;;;;;;;32.95;9.52;;;;;;;;;;4985026;28;20037;-71
2022/11/03 03:06:42;;;;;;;24.40;7.30;;;;;;;;;;4984886;28;20148;-68
2022/11/03 03:09:10;;;;;;;28.13;7.55;;;;;;;;;;4987735;28;20111;-70
2022/11/03 03:11:39;;;;;;;34.53;8.00;;;;;;;;;;4983715;28;20033;-70
2022/11/03 03:14:08;;;;;;;32.55;8.18;;;;;;;;;;4986282;28;20029;-71
2022/11/03 03:16:35;;;;;;;25.75;6.97;;;;;;;;;;5001668;28;20998;-69
2022/11/03 03:19:19;;;;;;;29.48;7.18;;;;;;;;;;4984414;28;20819;-72
2022/11/03 03:21:46;;;;;;;31.48;9.40;;;;;;;;;;4984298;28;20127;-71
2022/11/03 03:24:18;;;;;;;24.35;6.35;;;;;;;;;;4983225;28;20030;-70
2022/11/03 03:26:48;;;;;;;27.58;6.82;;;;;;;;;;4984482;28;20029;-69
2022/11/03 03:29:21;;;;;;;37.85;10.60;;;;;;;;;;4986754;28;20068;-71
2022/11/03 03:31:50;;;;;;;35.55;9.52;;;;;;;;;;4983636;28;20874;-69
2022/11/03 03:34:16;;;;;;;23.60;7.85;;;;;;;;;;4983606;28;20030;-69
2022/11/03 03:36:44;;;;;;;31.35;8.57;;;;;;;;;;4986159;28;20143;-70
2022/11/03 03:39:11;;;;;;;30.17;8.02;;;;;;;;;;4986145;28;20130;-70
2022/11/03 03:41:37;;;;;;;18.25;5.63;;;;;;;;;;4985383;28;20123;-71
2022/11/03 03:44:04;;;;;;;22.52;4.85;;;;;;;;;;4979847;28;20899;-70
2022/11/03 03:46:50;;;;;;;25.58;6.40;;;;;;;;;;4981421;28;20073;-70
2022/11/03 03:49:15;;;;;;;23.45;5.82;;;;;;;;;;4986101;28;20143;-71
2022/11/03 03:51:41;;;;;;;26.08;6.30;;;;;;;;;;4983087;28;20037;-70
2022/11/03 03:54:06;;;;;;;24.05;6.57;;;;;;;;;;4983700;28;20508;-72
2022/11/03 03:56:36;;;;;;;24.15;5.93;;;;;;;;;;4983422;28;20040;-71
2022/11/03 03:59:02;;;;;;;29.50;6.65;;;;;;;;;;4985147;28;20158;-69
2022/11/03 04:01:27;;;;;;;24.80;7.45;;;;;;;;;;4963496;28;20145;-69
2022/11/03 04:03:55;;;;;;;28.38;7.78;;;;;;;;;;4982443;28;20045;-69
2022/11/03 04:06:20;;;;;;;31.80;7.15;;;;;;;;;;4982559;28;20523;-68
2022/11/03 04:08:45;;;;;;;34.90;8.82;;;;;;;;;;4983678;28;20145;-68
2022/11/03 04:22:17;;;;;;;28.63;8.23;;;;;;;;;;4982534;28;20211;-70
2022/11/03 04:24:44;;;;;;;30.52;7.65;;;;;;;;;;4983509;28;22879;-70
2022/11/03 04:27:28;;;;;;;25.38;8.52;;;;;;;;;;4983114;28;20170;-70
2022/11/03 04:30:12;;;;;;;34.35;8.25;;;;;;;;;;4985359;28;20036;-71
2022/11/03 04:32:40;;;;;;;29.92;8.52;;;;;;;;;;4983573;28;20108;-71
2022/11/03 04:35:25;;;;;;;33.70;9.95;;;;;;;;;;4983127;28;20040;-69
2022/11/03 04:37:54;;;;;;;31.05;8.93;;;;;;;;;;4998319;28;20037;-71
2022/11/03 04:40:22;;;;;;;22.42;7.00;;;;;;;;;;4984112;28;20847;-71
2022/11/03 04:42:47;;;;;;;27.10;5.70;;;;;;;;;;4998921;28;20148;-71
2022/11/03 04:45:34;;;;;;;25.60;6.75;;;;;;;;;;4984791;28;20029;-68
2022/11/03 04:48:01;;;;;;;21.27;6.00;;;;;;;;;;4984044;28;20041;-69
2022/11/03 04:50:26;;;;;;;29.95;7.18;;;;;;;;;;4982632;28;20079;-69
2022/11/03 04:52:58;;;;;;;33.58;9.77;;;;;;;;;;4983386;28;20034;-69
2022/11/03 04:55:24;;;;;;;19.58;6.40;;;;;;;;;;4984313;28;20037;-69
2022/11/03 04:57:56;;;;;;;34.35;8.38;;;;;;;;;;4981282;28;20047;-70
2022/11/03 05:00:22;;;;;;;26.77;7.70;;;;;;;;;;4984784;28;20618;-68
2022/11/03 05:02:50;;;;;;;20.52;7.25;;;;;;;;;;4984223;28;20033;-68
2022/11/03 05:05:20;;;;;;;38.45;9.55;;;;;;;;;;4983630;28;21194;-68
2022/11/03 05:07:50;;;;;;;31.85;9.43;;;;;;;;;;4980719;28;21251;-68
2022/11/03 05:10:17;;;;;;;29.50;8.23;;;;;;;;;;4984841;28;20038;-68
2022/11/03 05:12:49;;;;;;;30.05;8.23;;;;;;;;;;4984189;28;20135;-68
2022/11/03 05:15:41;;;;;;;30.65;7.63;;;;;;;;;;4984505;28;20096;-68
2022/11/03 05:18:26;;;;;;;35.70;10.67;;;;;;;;;;4961531;28;20034;-67
2022/11/03 05:21:02;;;;;;;34.00;9.65;;;;;;;;;;4981625;28;20053;-70
2022/11/03 05:23:29;;;;;;;34.10;11.45;;;;;;;;;;4981451;28;20604;-69
2022/11/03 05:25:56;;;;;;;24.45;7.05;;;;;;;;;;4983090;28;20041;-69
2022/11/03 05:28:24;;;;;;;30.52;9.27;;;;;;;;;;4996800;28;20108;-69
2022/11/03 05:30:53;;;;;;;30.75;9.48;;;;;;;;;;4989008;28;20044;-72
2022/11/03 05:33:25;;;;;;;34.60;10.48;;;;;;;;;;4986153;28;20049;-70
2022/11/03 05:35:50;;;;;;;32.05;10.65;;;;;;;;;;4986703;28;20067;-68
2022/11/03 05:38:17;;;;;;;31.90;7.75;;;;;;;;;;4987593;28;20037;-69
2022/11/03 05:40:43;;;;;;;26.05;7.72;;;;;;;;;;4986768;28;20049;-68
2022/11/03 05:43:11;;;;;;;29.45;8.77;;;;;;;;;;4988769;28;22359;-68
2022/11/03 05:45:37;;;;;;;36.85;10.55;;;;;;;;;;4987454;28;20041;-70
2022/11/03 05:48:15;;;;;;;27.17;9.18;;;;;;;;;;4985383;28;20044;-70
2022/11/03 05:50:41;;;;;;;30.80;11.88;;;;;;;;;;4984246;28;20037;-68
2022/11/03 05:53:17;;;;;;;31.20;9.63;;;;;;;;;;4988965;28;20065;-68
2022/11/03 05:55:42;;;;;;;31.95;9.85;;;;;;;;;;4988734;28;20147;-68
2022/11/03 05:58:18;;;;;;;30.40;9.85;;;;;;;;;;5001750;28;20745;-68
2022/11/03 06:00:44;;;;;;;28.50;10.18;;;;;;;;;;4983927;28;21188;-69
2022/11/03 06:03:13;;;;;;;31.15;10.68;;;;;;;;;;4989213;28;20065;-68
2022/11/03 06:05:39;;;;;;;24.33;7.40;;;;;;;;;;5000682;28;20107;-67
2022/11/03 06:08:12;;;;;;;23.80;6.07;;;;;;;;;;4985750;28;20032;-68
2022/11/03 06:10:44;;;;;;;20.67;4.82;;;;;;;;;;4998979;28;20033;-69
2022/11/03 06:13:19;;;;;;;18.30;5.30;;;;;;;;;;4985982;28;20041;-67
2022/11/03 06:15:45;;;;;;;15.23;4.82;;;;;;;;;;4984944;28;20042;-67
2022/11/03 06:18:15;;;;;;;14.60;4.18;;;;;;;;;;5002910;28;20033;-67
2022/11/03 06:20:41;;;;;;;15.45;5.05;;;;;;;;;;4987389;28;20041;-65
2022/11/03 06:23:11;;;;;;;16.65;5.18;;;;;;;;;;4986639;28;20890;-66
2022/11/03 06:25:37;;;;;;;21.52;4.75;;;;;;;;;;4987709;28;20042;-66
2022/11/03 06:28:04;;;;;;;19.75;5.28;;;;;;;;;;4988762;28;20029;-66
2022/11/03 06:30:37;;;;;;;17.75;4.80;;;;;;;;;;4986824;28;20103;-66
2022/11/03 06:33:06;;;;;;;19.02;5.72;;;;;;;;;;4985222;28;20037;-66
2022/11/03 06:35:31;;;;;;;17.38;5.05;;;;;;;;;;4980644;28;20041;-66
2022/11/03 06:37:57;;;;;;;17.63;5.10;;;;;;;;;;4987331;28;20719;-66
2022/11/03 06:40:31;;;;;;;20.13;5.82;;;;;;;;;;4984508;28;20046;-67
2022/11/03 06:43:00;;;;;;;17.95;6.07;;;;;;;;;;4999176;28;20339;-66
2022/11/03 06:45:25;;;;;;;17.50;4.93;;;;;;;;;;4987489;28;20037;-66
2022/11/03 06:47:52;;;;;;;15.35;5.10;;;;;;;;;;5001872;28;20053;-68
2022/11/03 06:50:20;;;;;;;15.73;4.70;;;;;;;;;;4985361;28;20045;-66
2022/11/03 06:52:49;;;;;;;22.08;5.78;;;;;;;;;;4984586;28;20140;-67
2022/11/03 06:55:17;;;;;;;19.40;5.35;;;;;;;;;;4984487;28;21001;-66
2022/11/03 06:57:44;;;;;;;20.33;5.90;;;;;;;;;;4982056;28;20072;-68
2022/11/03 07:00:13;;;;;;;22.85;6.53;;;;;;;;;;4985596;28;20119;-67
2022/11/03 07:02:53;;;;;;;19.13;5.65;;;;;;;;;;4986251;28;20069;-67
2022/11/03 07:05:21;;;;;;;23.35;6.03;;;;;;;;;;4981709;28;20048;-68
2022/11/03 07:07:47;;;;;;;22.60;9.27;;;;;;;;;;4985095;28;20569;-66
2022/11/03 07:10:13;;;;;;;22.90;8.02;;;;;;;;;;4984114;28;20044;-66
2022/11/03 07:12:39;;;;;;;24.08;5.47;;;;;;;;;;5001096;28;20029;-66
2022/11/03 07:15:15;;;;;;;16.30;5.25;;;;;;;;;;4985807;28;20111;-66
2022/11/03 07:17:40;;;;;;;16.75;4.90;;;;;;;;;;4984867;28;20041;-65
2022/11/03 07:20:12;;;;;;;17.17;5.20;;;;;;;;;;4982721;28;20065;-65
2022/11/03 07:22:37;;;;;;;19.50;5.70;;;;;;;;;;4985438;28;20041;-66
2022/11/03 07:25:05;;;;;;;20.75;6.47;;;;;;;;;;4999157;28;20037;-65
2022/11/03 07:27:33;;;;;;;16.00;5.57;;;;;;;;;;4983336;28;20041;-65
2022/11/03 07:30:04;;;;;;;17.98;5.68;;;;;;;;;;4984140;28;20041;-68
2022/11/03 07:32:32;;;;;;;18.67;5.13;;;;;;;;;;4984154;28;20033;-67
2022/11/03 07:35:04;;;;;;;18.65;6.00;;;;;;;;;;4992256;28;20573;-65
2022/11/03 07:37:29;;;;;;;16.65;4.60;;;;;;;;;;4984621;28;21124;-66
2022/11/03 07:39:56;;;;;;;17.27;5.80;;;;;;;;;;4984967;28;20057;-65
2022/11/03 07:42:24;;;;;;;15.15;4.00;;;;;;;;;;4985727;28;20037;-67
2022/11/03 07:44:50;;;;;;;14.52;4.78;;;;;;;;;;4983258;28;20036;-66
2022/11/03 07:47:19;;;;;;;22.90;4.97;;;;;;;;;;4981011;28;20033;-65
2022/11/03 07:49:46;;;;;;;15.80;4.30;;;;;;;;;;4974945;28;20091;-65
2022/11/03 07:52:13;;;;;;;16.77;4.40;;;;;;;;;;4997149;28;20552;-64
2022/11/03 07:54:39;;;;;;;14.25;4.97;;;;;;;;;;4982098;28;20033;-66
2022/11/03 07:57:10;;;;;;;14.02;4.28;;;;;;;;;;4984101;28;20056;-66
2022/11/03 07:59:40;;;;;;;17.50;5.25;;;;;;;;;;4982385;28;20040;-64
2022/11/03 08:02:32;;;;;;;20.05;5.60;;;;;;;;;;4982541;28;20511;-66
2022/11/03 08:05:01;;;;;;;21.58;4.80;;;;;;;;;;4980669;28;20068;-65
2022/11/03 08:07:30;;;;;;;18.45;5.72;;;;;;;;;;4983616;28;20080;-66
2022/11/03 08:09:55;;;;;;;16.00;4.50;;;;;;;;;;4980326;28;20152;-65
2022/11/03 08:12:21;;;;;;;14.98;4.57;;;;;;;;;;4982171;28;20091;-64
2022/11/03 08:14:47;;;;;;;18.05;6.25;;;;;;;;;;4980313;28;20747;-66
2022/11/03 08:17:13;;;;;;;18.50;4.90;;;;;;;;;;4983187;28;20038;-64
2022/11/03 08:19:38;;;;;;;16.73;4.50;;;;;;;;;;4982680;28;20369;-68
2022/11/03 08:22:04;;;;;;;22.27;5.30;;;;;;;;;;4982396;28;20165;-66
2022/11/03 08:24:29;;;;;;;19.70;5.25;;;;;;;;;;4974846;28;21775;-65
2022/11/03 08:26:55;;;;;;;18.42;6.15;;;;;;;;;;4974302;28;20112;-64
2022/11/03 08:29:25;;;;;;;17.75;5.60;;;;;;;;;;4972395;28;20607;-65
2022/11/03 08:31:51;;;;;;;14.23;5.57;;;;;;;;;;4979440;28;20025;-65
2022/11/03 08:34:16;;;;;;;16.35;5.50;;;;;;;;;;4978312;28;20336;-65
2022/11/03 08:36:41;;;;;;;17.23;4.90;;;;;;;;;;4978359;28;21898;-65
2022/11/03 08:39:10;;;;;;;17.35;5.25;;;;;;;;;;4978374;28;20026;-65
2022/11/03 08:41:35;;;;;;;21.40;5.40;;;;;;;;;;4978471;28;20053;-64
2022/11/03 08:44:00;;;;;;;20.30;7.18;;;;;;;;;;4982662;28;20037;-65
2022/11/03 08:46:25;;;;;;;22.20;6.70;;;;;;;;;;4981329;28;20827;-67
2022/11/03 08:48:51;;;;;;;15.00;5.53;;;;;;;;;;4983761;28;20140;-66
2022/11/03 08:51:16;;;;;;;19.88;5.97;;;;;;;;;;4984514;28;20037;-64
2022/11/03 08:53:42;;;;;;;14.88;4.65;;;;;;;;;;4964779;28;20037;-64
2022/11/03 08:56:07;;;;;;;15.98;4.32;;;;;;;;;;4993579;28;20061;-66
2022/11/03 08:58:33;;;;;;;18.35;6.05;;;;;;;;;;4984918;28;20036;-66
2022/11/03 09:00:58;;;;;;;15.18;3.88;;;;;;;;;;4982169;28;20041;-67
2022/11/03 09:03:26;;;;;;;14.68;4.25;;;;;;;;;;4980598;28;20037;-65
2022/11/03 09:05:51;;;;;;;15.13;4.43;;;;;;;;;;4978768;28;20042;-66
2022/11/03 09:08:16;;;;;;;16.33;4.55;;;;;;;;;;4983261;28;20117;-66
2022/11/03 09:10:42;;;;;;;18.10;5.50;;;;;;;;;;4979048;28;21719;-66
2022/11/03 09:13:07;;;;;;;18.17;5.28;;;;;;;;;;4980799;28;20038;-66
2022/11/03 09:15:33;;;;;;;15.75;4.60;;;;;;;;;;4983340;28;23623;-65
2022/11/03 09:17:58;;;;;;;19.40;6.00;;;;;;;;;;4980608;28;20052;-66
2022/11/03 09:20:23;;;;;;;22.60;6.13;;;;;;;;;;4982438;28;20065;-64
2022/11/03 09:22:49;;;;;;;14.27;5.25;;;;;;;;;;4980278;28;20041;-65
2022/11/03 09:25:14;;;;;;;14.27;5.45;;;;;;;;;;4981128;28;20064;-66
2022/11/03 09:27:40;;;;;;;16.00;4.32;;;;;;;;;;4979764;28;20978;-68
2022/11/03 09:30:06;;;;;;;17.58;5.40;;;;;;;;;;4970407;28;20038;-65
2022/11/03 09:32:33;;;;;;;17.15;5.28;;;;;;;;;;4979466;28;20033;-66
2022/11/03 09:34:58;;;;;;;16.98;4.25;;;;;;;;;;4976672;28;20026;-64
2022/11/03 09:37:27;;;;;;;17.10;5.55;;;;;;;;;;4981423;28;20064;-65
2022/11/03 09:39:52;;;;;;;18.50;5.13;;;;;;;;;;4984494;28;20037;-66
2022/11/03 09:42:18;;;;;;;19.50;5.43;;;;;;;;;;4982322;28;20154;-65
2022/11/03 09:44:49;;;;;;;14.75;5.10;;;;;;;;;;4980692;28;20045;-66
2022/11/03 09:47:34;;;;;;;22.52;5.00;;;;;;;;;;4979994;28;20625;-65
2022/11/03 09:50:00;;;;;;;18.15;5.63;;;;;;;;;;4981779;28;20048;-66
2022/11/03 09:52:25;;;;;;;20.95;5.38;;;;;;;;;;4980930;28;20030;-65
2022/11/03 09:54:51;;;;;;;18.48;4.78;;;;;;;;;;4981325;28;21796;-66
2022/11/03 09:57:19;;;;;;;14.80;4.60;;;;;;;;;;4981365;28;20247;-64
2022/11/03 09:59:47;;;;;;;23.02;4.78;;;;;;;;;;4981969;28;20061;-67
2022/11/03 10:02:24;;;;;;;18.42;4.68;;;;;;;;;;4979009;28;20060;-66
2022/11/03 10:04:51;;;;;;;17.48;5.32;;;;;;;;;;4978689;28;20033;-66
2022/11/03 10:07:16;;;;;;;14.73;4.53;;;;;;;;;;4981918;28;20042;-68
2022/11/03 10:09:44;;;;;;;15.63;4.13;;;;;;;;;;4981879;28;20601;-66
2022/11/03 10:12:10;;;;;;;21.98;4.95;;;;;;;;;;4996342;28;20041;-66
2022/11/03 10:14:35;;;;;;;17.10;4.47;;;;;;;;;;4997646;28;20680;-66
2022/11/03 10:17:00;;;;;;;14.38;4.55;;;;;;;;;;4985042;28;20029;-65
2022/11/03 10:19:26;;;;;;;11.68;4.18;;;;;;;;;;4983305;28;20032;-67
2022/11/03 10:21:54;;;;;;;17.60;4.47;;;;;;;;;;4998749;28;20049;-66
2022/11/03 10:24:20;;;;;;;16.77;4.43;;;;;;;;;;4984100;28;20533;-66
2022/11/03 10:26:51;;;;;;;17.13;4.72;;;;;;;;;;4982687;28;20038;-66
2022/11/03 10:29:18;;;;;;;15.88;5.43;;;;;;;;;;4983083;28;20072;-66
2022/11/03 10:31:50;;;;;;;19.25;6.38;;;;;;;;;;4984695;28;20029;-66
2022/11/03 10:34:15;;;;;;;;;;;;;;;;;;4984409;28;20045;-66
2022/11/03 10:36:43;;;;;;;18.45;5.75;;;;;;;;;;4985061;28;19912;-66
2022/11/03 10:39:21;;;;;;;20.75;5.10;;;;;;;;;;4981377;28;20117;-65
2022/11/03 10:41:57;;;;;;;16.02;4.63;;;;;;;;;;4982747;28;20053;-64
2022/11/03 10:44:24;;;;;;;18.17;6.82;;;;;;;;;;4981543;28;20108;-66
2022/11/03 10:47:00;;;;;;;20.65;6.82;;;;;;;;;;4985212;28;20769;-67
2022/11/03 10:49:30;;;;;;;17.58;5.35;;;;;;;;;;4984681;28;20120;-66
2022/11/03 10:52:13;;;;;;;18.00;4.55;;;;;;;;;;4982355;28;20081;-67
2022/11/03 10:54:40;;;;;;;15.45;3.90;;;;;;;;;;4984107;28;20040;-67
2022/11/03 10:57:05;;;;;;;15.55;4.85;;;;;;;;;;4981223;28;20034;-68
2022/11/03 10:59:32;;;;;;;15.07;4.82;;;;;;;;;;4986212;28;20835;-66
2022/11/03 11:02:01;;;;;;;20.45;4.82;;;;;;;;;;4986277;28;20041;-66
2022/11/03 11:04:27;;;;;;;20.55;4.85;;;;;;;;;;4999590;28;20045;-66
2022/11/03 11:06:52;;;;;;;18.75;5.32;;;;;;;;;;4985523;28;20723;-66
2022/11/03 11:09:21;;;;;;;14.32;4.07;;;;;;;;;;4987069;28;20910;-64
2022/11/03 11:12:06;;;;;;;15.95;3.83;;;;;;;;;;4985077;28;21036;-67
2022/11/03 11:14:33;;;;;;;12.57;4.95;;;;;;;;;;4987179;28;20140;-67
2022/11/03 11:16:59;;;;;;;13.02;4.13;;;;;;;;;;4984763;28;20072;-67
2022/11/03 11:19:26;;;;;;;13.65;3.83;;;;;;;;;;4984511;28;20051;-66
2022/11/03 11:21:52;;;;;;;13.82;3.90;;;;;;;;;;4977971;28;20663;-66
2022/11/03 11:24:41;;;;;;;14.10;3.67;;;;;;;;;;4977418;28;20644;-66
2022/11/03 11:27:25;;;;;;;12.70;3.78;;;;;;;;;;4977241;28;20037;-66
2022/11/03 11:29:51;;;;;;;15.07;3.97;;;;;;;;;;4982516;28;20099;-66
2022/11/03 11:32:36;;;;;;;16.33;3.75;;;;;;;;;;4982131;28;20407;-65
2022/11/03 11:35:08;;;;;;;12.65;3.60;;;;;;;;;;4979729;28;20042;-66
2022/11/03 11:37:33;;;;;;;;;;;;;;;;;;4980812;28;20030;-67
2022/11/03 11:39:58;;;;;;;12.50;3.03;;;;;;;;;;4986204;28;20890;-65
2022/11/03 11:42:23;;;;;;;12.25;4.20;;;;;;;;;;4980725;28;20283;-65
2022/11/03 11:44:54;;;;;;;17.42;4.22;;;;;;;;;;4978936;28;20749;-64
2022/11/03 11:47:25;;;;;;;11.70;3.15;;;;;;;;;;4983103;28;20042;-67
2022/11/03 11:50:05;;;;;;;11.52;3.33;;;;;;;;;;5000079;28;20089;-66
2022/11/03 11:52:40;;;;;;;15.05;3.50;;;;;;;;;;4985345;28;20071;-65
2022/11/03 11:55:11;;;;;;;11.13;3.53;;;;;;;;;;4982922;28;20115;-65
2022/11/03 11:57:37;;;;;;;15.30;3.35;;;;;;;;;;4984141;28;20103;-65
2022/11/03 12:00:03;;;;;;;11.77;3.20;;;;;;;;;;4984510;28;20100;-65
2022/11/03 12:02:29;;;;;;;13.20;3.25;;;;;;;;;;4982936;28;20088;-66
2022/11/03 12:05:01;;;;;;;12.40;3.75;;;;;;;;;;4982820;28;22308;-65
2022/11/03 12:07:26;;;;;;;;;;;;;;;;;;4983493;28;20037;-65
2022/11/03 12:09:52;;;;;;;12.13;3.45;;;;;;;;;;4986181;28;20853;-65
2022/11/03 12:12:31;;;;;;;12.90;3.30;;;;;;;;;;4981426;28;20304;-65
2022/11/03 12:14:57;;;;;;;12.05;3.15;;;;;;;;;;4984423;28;20111;-66
2022/11/03 12:17:22;;;;;;;10.43;2.85;;;;;;;;;;4983291;28;20034;-65
2022/11/03 12:19:49;;;;;;;11.65;3.40;;;;;;;;;;4981974;28;20030;-67
2022/11/03 12:22:23;;;;;;;13.88;3.35;;;;;;;;;;4981790;28;20547;-68
2022/11/03 12:24:59;;;;;;;11.23;3.20;;;;;;;;;;4979914;28;20140;-66
2022/11/03 12:27:24;;;;;;;9.40;2.88;;;;;;;;;;4996685;28;20033;-65
2022/11/03 12:29:50;;;;;;;12.95;3.47;;;;;;;;;;4984374;28;20064;-66
2022/11/03 12:32:15;;;;;;;12.98;3.30;;;;;;;;;;4984042;28;20033;-66
2022/11/03 12:34:41;;;;;;;12.45;3.90;;;;;;;;;;5001257;28;22365;-66
2022/11/03 12:37:08;;;;;;;11.45;3.08;;;;;;;;;;4982566;28;20040;-67
2022/11/03 12:39:34;;;;;;;10.27;3.25;;;;;;;;;;4986888;28;21073;-68
2022/11/03 12:41:59;;;;;;;11.23;3.30;;;;;;;;;;4985201;28;20106;-65
2022/11/03 12:44:24;;;;;;;14.65;4.45;;;;;;;;;;4999980;28;20037;-67
2022/11/03 12:46:50;;;;;;;10.52;3.47;;;;;;;;;;4978577;28;20892;-65
2022/11/03 12:49:20;;;;;;;12.70;3.45;;;;;;;;;;4983761;28;20041;-65
2022/11/03 12:51:45;;;;;;;17.73;4.60;;;;;;;;;;4986288;28;20727;-66
2022/11/03 12:54:13;;;;;;;17.73;5.70;;;;;;;;;;4985325;28;20044;-66
2022/11/03 12:56:38;;;;;;;18.05;5.30;;;;;;;;;;4963076;28;20766;-65
2022/11/03 12:59:04;;;;;;;14.45;4.43;;;;;;;;;;4983088;28;20034;-65
2022/11/03 13:01:29;;;;;;;11.55;3.75;;;;;;;;;;4986448;28;20045;-64
2022/11/03 13:03:54;;;;;;;14.68;4.13;;;;;;;;;;4985195;28;20699;-65
2022/11/03 13:06:20;;;;;;;12.52;3.90;;;;;;;;;;4984474;28;20042;-65
2022/11/03 13:08:46;;;;;;;21.35;4.80;;;;;;;;;;4982454;28;20033;-65
2022/11/03 13:13:55;;;;;;;13.05;3.70;;;;;;;;;;4982759;28;20916;-66
2022/11/03 13:16:21;;;;;;;13.88;3.28;;;;;;;;;;4986595;28;20065;-66
2022/11/03 13:18:46;;;;;;;16.65;4.60;;;;;;;;;;4984169;28;20087;-66
2022/11/03 13:21:12;;;;;;;22.77;5.50;;;;;;;;;;4983927;28;20215;-66
2022/11/03 13:23:37;;;;;;;23.45;4.85;;;;;;;;;;4992250;28;20108;-66
2022/11/03 13:26:03;;;;;;;31.88;7.20;;;;;;;;;;4983213;28;20044;-68
2022/11/03 13:28:28;;;;;;;18.77;5.43;;;;;;;;;;4959941;28;20044;-65
2022/11/03 13:30:53;;;;;;;18.13;4.75;;;;;;;;;;4985330;28;20040;-65
2022/11/03 13:33:24;;;;;;;20.65;5.32;;;;;;;;;;5000172;28;20786;-66
2022/11/03 13:35:49;;;;;;;22.05;5.88;;;;;;;;;;4985957;28;20038;-66
2022/11/03 13:38:14;;;;;;;25.17;5.70;;;;;;;;;;4985411;28;20049;-66
2022/11/03 13:40:42;;;;;;;21.73;6.22;;;;;;;;;;4981961;28;20138;-65
2022/11/03 13:43:07;;;;;;;18.20;4.97;;;;;;;;;;4982169;28;20046;-66
2022/11/03 13:45:33;;;;;;;19.73;4.97;;;;;;;;;;4980393;28;20042;-66
2022/11/03 13:47:59;;;;;;;14.40;4.47;;;;;;;;;;4982901;28;20069;-67
2022/11/03 13:50:24;;;;;;;26.23;5.68;;;;;;;;;;4978610;28;20132;-66
2022/11/03 13:52:49;;;;;;;14.52;4.20;;;;;;;;;;4982441;28;20170;-66
2022/11/03 13:55:15;;;;;;;17.10;3.83;;;;;;;;;;4983530;28;20065;-67
2022/11/03 13:57:40;;;;;;;21.40;5.07;;;;;;;;;;4983616;28;20041;-66
2022/11/03 14:00:07;;;;;;;18.25;5.55;;;;;;;;;;4985090;28;20154;-66
2022/11/03 14:02:33;;;;;;;9.45;3.05;;;;;;;;;;4982022;28;20739;-66
2022/11/03 14:04:58;;;;;;;9.35;3.10;;;;;;;;;;4984334;28;20038;-66
2022/11/03 14:07:24;;;;;;;10.38;3.60;;;;;;;;;;4983579;28;20091;-66
2022/11/03 14:09:49;;;;;;;17.80;3.78;;;;;;;;;;4982640;28;20227;-65
2022/11/03 14:12:29;;;;;;;11.57;2.95;;;;;;;;;;4983417;28;20022;-65
2022/11/03 14:14:55;;;;;;;20.17;4.82;;;;;;;;;;4984749;28;20033;-66
2022/11/03 14:17:20;;;;;;;23.77;4.93;;;;;;;;;;4982547;28;20033;-66
2022/11/03 14:19:46;;;;;;;22.30;4.35;;;;;;;;;;4985097;28;20119;-66
2022/11/03 14:22:13;;;;;;;14.25;4.05;;;;;;;;;;4983746;28;20045;-65
2022/11/03 14:24:38;;;;;;;12.45;3.30;;;;;;;;;;4983924;28;20030;-66
2022/11/03 14:27:04;;;;;;;14.65;3.95;;;;;;;;;;4985559;28;20040;-68
2022/11/03 14:29:29;;;;;;;14.63;3.75;;;;;;;;;;4984606;28;20041;-66
2022/11/03 14:31:55;;;;;;;9.70;3.90;;;;;;;;;;4984319;28;20134;-65
2022/11/03 14:34:22;;;;;;;14.80;4.20;;;;;;;;;;4980700;28;20064;-66
2022/11/03 14:36:47;;;;;;;14.75;4.00;;;;;;;;;;4982107;28;20069;-65
2022/11/03 14:39:13;;;;;;;11.05;3.45;;;;;;;;;;4984557;28;20047;-68
2022/11/03 14:44:24;;;;;;;17.67;4.70;;;;;;;;;;4981261;28;20041;-66
2022/11/03 14:46:49;;;;;;;14.55;4.75;;;;;;;;;;4981085;28;20508;-66
2022/11/03 14:49:17;;;;;;;8.70;3.00;;;;;;;;;;4981179;28;20033;-66
2022/11/03 14:51:43;;;;;;;15.60;4.82;;;;;;;;;;4987036;28;20037;-66
2022/11/03 14:54:08;;;;;;;11.75;4.70;;;;;;;;;;4984594;28;20049;-66
2022/11/03 14:56:37;;;;;;;16.08;5.43;;;;;;;;;;4983533;28;21890;-66
2022/11/03 14:59:02;;;;;;;18.27;5.43;;;;;;;;;;4981845;28;20033;-65
2022/11/03 15:01:27;;;;;;;15.70;5.05;;;;;;;;;;4982785;28;20124;-66